»·PEaware :: N221XG KSEE-KSDM

N221XG :: KSEE-KSDM

FLIGHT INFORMATION

Flight Status: Arrived
Operator: Privately registered:
United States
More flights under this callsign
Pilot: Ryan L. (9775)
Aircraft: CESSNA 172 SKYHAWK
(C172)
More flights by this aircraft type
Origin: KSEE Gillespie
United States
Destination: KSDM Brown Mun
United States
More flights between these airports :: More routes between these airports
Route: MZB1 MZB HAILE
File this flight plan on PilotEdge
Remarks: Planning missed approach at KSDM
Altitude:
(Current/Filed)
4,000ft
Speed:
(Current/Filed)
110kts
Departed: 10-Feb-19 08:20 PM
Arrived: 10-Feb-19 08:51 PM
Distance/Time
Traveled:
15nm/0:31
Distance/Time
To Go:
Arrived

Flight Plot

Page will automatically refresh every two minutes.

Flight plan parsing failed; only flown route is shown


Map Options




Map Legend


Flown Route
Filed Route
Departure Airport
Arrival Airport
Navaid (VOR, NDB)
Fix

Horizontal Profiles

Position Reports

Time Latitude Longitude Heading Altitude Ground
Speed
10-Feb-19 20:00 32.824651 -116.966330 72 392ft 0kts
10-Feb-19 20:01 32.824651 -116.966330 72 392ft 0kts
10-Feb-19 20:02 32.824651 -116.966330 72 392ft 0kts
10-Feb-19 20:03 32.824651 -116.966330 72 392ft 0kts
10-Feb-19 20:05 32.824651 -116.966330 72 392ft 0kts
10-Feb-19 20:06 32.824651 -116.966330 72 392ft 0kts
10-Feb-19 20:07 32.824651 -116.966330 72 392ft 0kts
10-Feb-19 20:08 32.824651 -116.966330 72 392ft 0kts
10-Feb-19 20:09 32.824651 -116.966330 72 392ft 0kts
10-Feb-19 20:10 32.824651 -116.966330 72 392ft 0kts
10-Feb-19 20:11 32.824651 -116.966330 72 392ft 0kts
10-Feb-19 20:12 32.824651 -116.966330 72 392ft 0kts
10-Feb-19 20:13 32.824651 -116.966330 72 392ft 0kts
10-Feb-19 20:14 32.824904 -116.965875 103 392ft 0kts
10-Feb-19 20:15 32.825241 -116.967012 109 392ft 4kts
10-Feb-19 20:16 32.825472 -116.963951 335 392ft 8kts
10-Feb-19 20:17 32.825522 -116.963990 312 392ft 0kts
10-Feb-19 20:18 32.825522 -116.963990 312 392ft 0kts
10-Feb-19 20:19 32.826287 -116.964653 323 392ft 9kts
10-Feb-19 20:20 32.829291 -116.980035 286 866ft 65kts
10-Feb-19 20:21 32.835914 -116.967232 150 1617ft 87kts
10-Feb-19 20:22 32.814608 -116.962363 182 2363ft 79kts
10-Feb-19 20:23 32.796631 -116.966140 256 2975ft 65kts
10-Feb-19 20:24 32.790043 -116.985361 246 3638ft 64kts
10-Feb-19 20:25 32.780008 -117.003432 250 4171ft 71kts
10-Feb-19 20:25 32.777306 -117.024479 262 4173ft 94kts
10-Feb-19 20:26 32.776497 -117.051199 273 4105ft 97kts
10-Feb-19 20:28 32.778150 -117.084058 272 4071ft 91kts
10-Feb-19 20:29 32.780578 -117.113244 300 4067ft 88kts
10-Feb-19 20:29 32.798507 -117.121890 9 4068ft 108kts
10-Feb-19 20:30 32.826791 -117.109199 11 4069ft 107kts
10-Feb-19 20:31 32.854769 -117.096629 11 4071ft 108kts
10-Feb-19 20:33 32.885952 -117.072479 32 4070ft 120kts
10-Feb-19 20:33 32.908169 -117.051061 31 4070ft 124kts
10-Feb-19 20:34 32.923223 -117.018882 114 4070ft 122kts
10-Feb-19 20:35 32.897926 -117.011952 207 4070ft 95kts
10-Feb-19 20:36 32.875048 -117.026198 218 4071ft 93kts
10-Feb-19 20:37 32.852354 -117.042536 216 4070ft 97kts
10-Feb-19 20:38 32.826010 -117.053203 200 4070ft 103kts
10-Feb-19 20:39 32.796857 -117.047699 167 4070ft 114kts
10-Feb-19 20:40 32.769392 -117.026457 150 3863ft 120kts
10-Feb-19 20:41 32.744584 -117.004463 157 3150ft 104kts
10-Feb-19 20:42 32.721430 -116.987892 158 2637ft 93kts
10-Feb-19 20:43 32.697239 -116.985742 197 2565ft 92kts
10-Feb-19 20:44 32.671662 -116.993455 200 2367ft 94kts
10-Feb-19 20:45 32.645555 -116.990099 173 1736ft 94kts
10-Feb-19 20:46 32.620199 -116.982059 166 1139ft 87kts
10-Feb-19 20:47 32.597218 -116.972972 166 1136ft 88kts
10-Feb-19 20:48 32.577462 -116.960684 178 846ft 72kts
10-Feb-19 20:49 32.572271 -116.975482 276 529ft 42kts
10-Feb-19 20:50 32.572807 -116.983770 231 529ft 11kts
10-Feb-19 20:51 32.570821 -116.984285 196 529ft 9kts
10-Feb-19 20:52 32.570279 -116.984729 355 529ft 0kts
10-Feb-19 20:53 32.570279 -116.984729 355 529ft 0kts

Navigation Log

Ident Type
Flight plan parsing failed, navigation log unavailable